createdAt,value
2019-04-21T00:00:31.819Z,98.00
2019-04-21T00:03:07.378Z,97.70
2019-04-21T00:05:52.984Z,98.10
2019-04-21T00:08:27.798Z,98.00
2019-04-21T00:10:56.555Z,97.80
2019-04-21T00:13:17.673Z,97.30
2019-04-21T00:15:38.351Z,97.30
2019-04-21T00:18:08.609Z,97.10
2019-04-21T00:20:43.908Z,96.70
2019-04-21T00:23:22.645Z,96.60
2019-04-21T00:25:50.003Z,96.40
2019-04-21T00:28:32.526Z,96.60
2019-04-21T00:30:58.081Z,96.90
2019-04-21T00:33:19.205Z,97.30
2019-04-21T00:35:50.482Z,97.60
2019-04-21T00:38:32.348Z,97.50
2019-04-21T00:41:00.022Z,97.60
2019-04-21T00:43:28.404Z,97.40
2019-04-21T00:45:51.826Z,97.60
2019-04-21T00:48:36.358Z,97.40
2019-04-21T00:51:18.446Z,97.40
2019-04-21T00:53:45.356Z,97.70
2019-04-21T00:56:18.277Z,98.00
2019-04-21T00:58:39.012Z,98.10
2019-04-21T01:01:08.811Z,98.50
2019-04-21T01:03:46.236Z,98.50
2019-04-21T01:06:20.903Z,98.90
2019-04-21T01:08:41.206Z,98.80
2019-04-21T01:11:15.324Z,99.00
2019-04-21T01:13:47.073Z,98.30
2019-04-21T01:16:14.510Z,98.50
2019-04-21T01:18:44.307Z,98.40
2019-04-21T01:20:51.734Z,98.50
2019-04-21T01:23:21.384Z,98.80
2019-04-21T01:26:00.784Z,99.00
2019-04-21T01:28:39.981Z,98.90
2019-04-21T01:31:11.018Z,99.30
2019-04-21T01:33:48.369Z,99.90
2019-04-21T01:36:08.210Z,99.90
2019-04-21T01:38:48.258Z,99.90
2019-04-21T01:41:12.984Z,99.90
2019-04-21T01:43:42.309Z,99.90
2019-04-21T01:46:10.721Z,99.90
2019-04-21T01:48:39.157Z,99.90
2019-04-21T01:51:08.847Z,99.90
2019-04-21T01:53:59.533Z,99.90
2019-04-21T01:56:35.721Z,99.90
2019-04-21T01:58:53.256Z,99.90
2019-04-21T02:01:33.302Z,99.90
2019-04-21T02:03:59.950Z,99.90
2019-04-21T02:06:39.037Z,99.90
2019-04-21T02:09:05.116Z,99.90
2019-04-21T02:11:43.386Z,99.90
2019-04-21T02:14:09.937Z,99.90
2019-04-21T02:16:40.719Z,99.90
2019-04-21T02:19:04.403Z,99.90
2019-04-21T02:21:36.873Z,99.90
2019-04-21T02:24:11.909Z,99.90
2019-04-21T02:26:41.584Z,99.90
2019-04-21T02:29:15.504Z,99.90
2019-04-21T02:31:57.153Z,99.90
2019-04-21T02:34:19.239Z,99.90
2019-04-21T02:39:23.106Z,99.90
2019-04-21T02:52:01.316Z,99.90
2019-04-21T02:59:34.876Z,99.90
2019-04-21T03:02:04.646Z,99.90
2019-04-21T03:04:47.574Z,99.90
2019-04-21T03:14:56.543Z,99.90
2019-04-21T03:17:23.896Z,99.90
2019-04-21T03:25:04.449Z,99.90
2019-04-21T03:39:50.681Z,99.90
2019-04-21T03:44:45.664Z,99.90
2019-04-21T03:47:24.894Z,99.90
2019-04-21T03:50:01.068Z,99.90
2019-04-21T03:52:19.427Z,99.90
2019-04-21T04:00:49.802Z,99.90
2019-04-21T04:03:32.385Z,99.90
2019-04-21T04:06:03.599Z,99.90
2019-04-21T04:11:08.302Z,99.90
2019-04-21T04:13:37.596Z,99.90
2019-04-21T04:18:39.088Z,99.90
2019-04-21T04:21:02.686Z,99.90
2019-04-21T04:23:31.514Z,99.90
2019-04-21T04:25:59.459Z,99.90
2019-04-21T04:28:40.866Z,99.90
2019-04-21T04:31:05.656Z,99.90
2019-04-21T04:33:43.750Z,99.90
2019-04-21T04:38:41.662Z,99.90
2019-04-21T04:41:19.817Z,99.90
2019-04-21T04:43:52.576Z,99.90
2019-04-21T04:46:07.290Z,99.90
2019-04-21T04:48:48.515Z,99.90
2019-04-21T04:53:44.311Z,99.90
2019-04-21T04:56:12.303Z,99.90
2019-04-21T04:58:59.496Z,99.90
2019-04-21T05:01:42.416Z,99.90
2019-04-21T05:06:42.400Z,99.90
2019-04-21T05:09:07.722Z,99.90
2019-04-21T05:11:46.755Z,99.90
2019-04-21T05:14:11.598Z,99.90
2019-04-21T05:23:56.929Z,98.50
2019-04-21T05:26:21.985Z,96.70
2019-04-21T05:28:52.605Z,96.00
2019-04-21T05:31:46.365Z,96.10
2019-04-21T05:34:14.974Z,95.30
2019-04-21T05:36:48.940Z,94.50
2019-04-21T05:39:24.811Z,93.90
2019-04-21T05:41:49.120Z,93.50
2019-04-21T05:44:36.206Z,91.30
2019-04-21T05:47:14.246Z,91.20
2019-04-21T05:49:32.745Z,91.30
2019-04-21T05:51:58.454Z,88.70
2019-04-21T05:57:05.830Z,89.00
2019-04-21T05:59:39.999Z,89.10
2019-04-21T06:02:18.439Z,88.40
2019-04-21T06:04:57.917Z,87.90
2019-04-21T06:07:13.947Z,89.40
2019-04-21T06:09:48.885Z,86.10
2019-04-21T06:12:10.291Z,85.30
2019-04-21T06:14:46.889Z,85.80
2019-04-21T06:17:19.718Z,84.60
2019-04-21T06:19:46.763Z,87.00
2019-04-21T06:22:08.962Z,84.00
2019-04-21T06:24:54.225Z,83.20
2019-04-21T06:27:14.877Z,82.90
2019-04-21T06:29:45.215Z,82.30
2019-04-21T06:35:01.076Z,81.10
2019-04-21T06:37:40.589Z,81.80
2019-04-21T06:40:03.173Z,80.30
2019-04-21T06:42:23.395Z,80.10
2019-04-21T06:45:01.851Z,79.60
2019-04-21T06:49:50.282Z,79.30
2019-04-21T06:52:43.568Z,78.50
2019-04-21T06:54:54.908Z,79.00
2019-04-21T06:57:26.014Z,79.90
2019-04-21T06:59:49.986Z,83.30
2019-04-21T07:02:38.015Z,82.10
2019-04-21T07:04:58.984Z,81.70
2019-04-21T07:07:26.126Z,79.70
2019-04-21T07:09:57.266Z,78.40
2019-04-21T07:12:24.452Z,81.00
2019-04-21T07:14:52.694Z,80.90
2019-04-21T07:17:30.729Z,81.80
2019-04-21T07:19:55.788Z,83.40
2019-04-21T07:22:27.293Z,84.80
2019-04-21T07:24:57.112Z,85.90
2019-04-21T07:27:31.560Z,86.10
2019-04-21T07:30:02.550Z,85.70
2019-04-21T07:32:26.432Z,87.40
2019-04-21T07:35:03.889Z,89.50
2019-04-21T07:37:29.940Z,88.50
2019-04-21T07:39:54.649Z,88.20
2019-04-21T07:42:24.155Z,88.20
2019-04-21T07:44:55.326Z,90.00
2019-04-21T07:47:34.325Z,90.20
2019-04-21T07:50:17.124Z,90.00
2019-04-21T07:52:50.509Z,88.20
2019-04-21T07:57:37.553Z,87.00
2019-04-21T08:02:49.581Z,87.10
2019-04-21T08:05:20.581Z,88.30
2019-04-21T08:07:51.886Z,89.50
2019-04-21T08:10:15.553Z,90.20
2019-04-21T08:12:44.750Z,90.00
2019-04-21T08:15:19.499Z,86.30
2019-04-21T08:17:48.495Z,89.90
2019-04-21T08:20:23.080Z,89.50
2019-04-21T08:22:51.060Z,89.40
2019-04-21T08:25:19.592Z,89.50
2019-04-21T08:30:20.445Z,90.10
2019-04-21T08:37:48.132Z,86.60
2019-04-21T08:40:30.330Z,90.00
2019-04-21T08:42:50.821Z,87.70
2019-04-21T08:45:25.809Z,88.80
2019-04-21T08:47:52.063Z,88.80
2019-04-21T08:50:20.763Z,85.50
2019-04-21T08:55:25.305Z,84.30
2019-04-21T08:58:08.162Z,84.10
2019-04-21T09:00:57.791Z,83.20
2019-04-21T09:03:21.686Z,82.50
2019-04-21T09:05:52.599Z,82.00
2019-04-21T09:08:26.160Z,82.00
2019-04-21T09:10:52.894Z,81.50
2019-04-21T09:13:27.308Z,80.30
2019-04-21T09:15:54.872Z,81.80
2019-04-21T09:18:20.936Z,81.10
2019-04-21T09:20:58.479Z,80.30
2019-04-21T09:23:25.623Z,82.10
2019-04-21T09:26:00.415Z,83.30
2019-04-21T09:28:21.166Z,82.90
2019-04-21T09:30:42.170Z,82.30
2019-04-21T09:33:09.186Z,81.30
2019-04-21T09:35:40.688Z,83.90
2019-04-21T09:38:19.579Z,85.60
2019-04-21T09:40:44.125Z,86.20
2019-04-21T09:43:11.941Z,84.30
2019-04-21T09:45:38.863Z,83.00
2019-04-21T09:48:13.357Z,83.60
2019-04-21T09:50:38.421Z,84.70
2019-04-21T09:53:18.146Z,85.00
2019-04-21T09:55:47.952Z,84.10
2019-04-21T09:58:18.446Z,83.30
2019-04-21T10:00:49.882Z,80.40
2019-04-21T10:03:12.437Z,80.30
2019-04-21T10:05:39.281Z,82.80
2019-04-21T10:08:08.190Z,81.70
2019-04-21T10:10:36.824Z,81.50
2019-04-21T10:13:05.425Z,82.50
2019-04-21T10:15:35.429Z,82.20
2019-04-21T10:18:08.658Z,83.50
2019-04-21T10:20:38.472Z,85.80
2019-04-21T10:23:07.343Z,80.60
2019-04-21T10:25:36.776Z,79.70
2019-04-21T10:28:05.496Z,83.20
2019-04-21T10:30:34.768Z,82.80
2019-04-21T10:33:04.540Z,84.70
2019-04-21T10:35:33.089Z,80.50
2019-04-21T10:38:14.869Z,81.40
2019-04-21T10:40:33.951Z,80.90
2019-04-21T10:43:02.065Z,80.10
2019-04-21T10:45:30.940Z,82.30
2019-04-21T10:48:00.852Z,80.40
2019-04-21T10:50:29.500Z,79.30
2019-04-21T10:53:06.938Z,77.20
2019-04-21T10:55:52.682Z,77.20
2019-04-21T10:58:08.679Z,77.60
2019-04-21T11:00:39.758Z,79.90
2019-04-21T11:03:26.834Z,79.10
2019-04-21T11:06:01.025Z,78.80
2019-04-21T11:08:34.167Z,76.70
2019-04-21T11:11:00.055Z,80.40
2019-04-21T11:13:30.593Z,83.90
2019-04-21T11:15:59.380Z,82.20
2019-04-21T11:18:28.231Z,79.20
2019-04-21T11:20:56.919Z,78.80
2019-04-21T11:23:25.399Z,74.80
2019-04-21T11:25:53.983Z,78.00
2019-04-21T11:28:22.904Z,77.60
2019-04-21T11:30:52.953Z,78.00
2019-04-21T11:33:22.835Z,78.60
2019-04-21T11:35:53.196Z,77.70
2019-04-21T11:38:58.443Z,78.30
2019-04-21T11:41:10.041Z,78.30
2019-04-21T11:43:39.115Z,78.60
2019-04-21T11:46:08.598Z,76.20
2019-04-21T11:48:37.307Z,78.10
2019-04-21T11:51:06.850Z,75.60
2019-04-21T11:53:36.892Z,78.40
2019-04-21T11:56:06.834Z,76.60
2019-04-21T11:58:36.085Z,74.30
2019-04-21T12:01:05.638Z,75.70
2019-04-21T12:03:35.756Z,75.40
2019-04-21T12:06:05.773Z,73.90
2019-04-21T12:08:40.433Z,74.70
2019-04-21T12:11:05.317Z,75.70
2019-04-21T12:13:34.280Z,73.00
2019-04-21T12:16:03.253Z,73.80
2019-04-21T12:18:33.963Z,72.60
2019-04-21T12:21:03.274Z,73.00
2019-04-21T12:23:32.415Z,71.40
2019-04-21T12:26:01.381Z,73.10
2019-04-21T12:28:30.371Z,68.00
2019-04-21T12:31:00.128Z,74.60
2019-04-21T12:33:40.257Z,70.50
2019-04-21T12:36:09.539Z,73.40
2019-04-21T12:38:46.229Z,73.10
2019-04-21T12:41:08.692Z,73.60
2019-04-21T12:43:37.368Z,72.70
2019-04-21T12:46:05.996Z,74.30
2019-04-21T12:48:35.742Z,71.40
2019-04-21T12:51:06.119Z,71.90
2019-04-21T12:53:35.928Z,71.30
2019-04-21T12:56:05.487Z,69.90
2019-04-21T12:58:35.279Z,67.90
2019-04-21T13:01:05.040Z,70.70
2019-04-21T13:03:34.083Z,69.30
2019-04-21T13:06:03.512Z,69.10
2019-04-21T13:08:43.612Z,72.00
2019-04-21T13:11:02.456Z,72.40
2019-04-21T13:13:32.201Z,71.40
2019-04-21T13:16:01.150Z,70.90
2019-04-21T13:18:31.175Z,71.30
2019-04-21T13:21:02.157Z,67.00
2019-04-21T13:23:31.296Z,72.00
2019-04-21T13:26:01.649Z,71.00
2019-04-21T13:28:30.442Z,67.10
2019-04-21T13:31:00.181Z,68.00
2019-04-21T13:33:29.245Z,67.10
2019-04-21T13:35:59.252Z,65.70
2019-04-21T13:38:35.183Z,67.90
2019-04-21T13:41:13.110Z,69.80
2019-04-21T13:43:32.850Z,66.60
2019-04-21T13:46:01.845Z,69.60
2019-04-21T13:48:30.751Z,65.90
2019-04-21T13:50:59.576Z,65.50
2019-04-21T13:53:28.557Z,65.80
2019-04-21T13:55:58.497Z,66.40
2019-04-21T13:58:28.204Z,65.80
2019-04-21T14:00:58.012Z,63.90
2019-04-21T14:03:26.843Z,64.90
2019-04-21T14:05:56.178Z,63.30
2019-04-21T14:08:25.251Z,64.50
2019-04-21T14:10:55.569Z,61.20
2019-04-21T14:13:24.628Z,62.20
2019-04-21T14:15:53.860Z,65.40
2019-04-21T14:18:22.774Z,65.30
2019-04-21T14:20:51.400Z,64.30
2019-04-21T14:23:28.582Z,64.50
2019-04-21T14:25:50.284Z,62.50
2019-04-21T14:28:19.951Z,63.80
2019-04-21T14:30:50.317Z,60.20
2019-04-21T14:33:20.450Z,61.30
2019-04-21T14:35:50.506Z,64.50
2019-04-21T14:38:20.509Z,64.40
2019-04-21T14:40:50.393Z,64.70
2019-04-21T14:43:20.450Z,62.90
2019-04-21T14:46:07.504Z,61.90
2019-04-21T14:48:45.369Z,61.20
2019-04-21T14:51:18.893Z,63.30
2019-04-21T14:53:52.076Z,64.50
2019-04-21T14:56:21.542Z,63.50
2019-04-21T14:58:50.918Z,62.30
2019-04-21T15:01:19.855Z,62.50
2019-04-21T15:03:49.903Z,63.30
2019-04-21T15:06:19.038Z,62.70
2019-04-21T15:08:49.075Z,64.30
2019-04-21T15:11:18.079Z,65.40
2019-04-21T15:13:47.995Z,65.20
2019-04-21T15:16:16.912Z,64.20
2019-04-21T15:18:46.510Z,65.10
2019-04-21T15:21:15.384Z,65.90
2019-04-21T15:23:44.689Z,63.20
2019-04-21T15:26:14.361Z,64.50
2019-04-21T15:28:44.451Z,63.60
2019-04-21T15:31:21.810Z,67.20
2019-04-21T15:33:45.215Z,65.90
2019-04-21T15:36:15.261Z,66.50
2019-04-21T15:38:45.722Z,66.20
2019-04-21T15:41:14.563Z,64.80
2019-04-21T15:43:44.572Z,65.50
2019-04-21T15:46:13.471Z,66.00
2019-04-21T15:48:42.102Z,65.80
2019-04-21T15:51:11.098Z,67.80
2019-04-21T15:53:41.840Z,65.00
2019-04-21T15:56:12.973Z,66.00
2019-04-21T15:58:46.392Z,65.80
2019-04-21T16:01:16.789Z,65.70
2019-04-21T16:03:45.341Z,66.80
2019-04-21T16:06:14.308Z,67.50
2019-04-21T16:08:47.414Z,67.70
2019-04-21T16:11:13.656Z,67.50
2019-04-21T16:13:43.632Z,67.70
2019-04-21T16:16:12.714Z,68.20
2019-04-21T16:18:42.518Z,68.20
2019-04-21T16:21:11.761Z,68.80
2019-04-21T16:23:40.543Z,67.90
2019-04-21T16:26:10.748Z,68.70
2019-04-21T16:28:39.629Z,68.80
2019-04-21T16:31:08.224Z,68.40
2019-04-21T16:33:36.887Z,68.90
2019-04-21T16:36:08.203Z,67.80
2019-04-21T16:38:35.754Z,68.30
2019-04-21T16:41:08.143Z,68.60
2019-04-21T16:43:35.401Z,68.90
2019-04-21T16:46:04.677Z,68.00
2019-04-21T16:48:33.774Z,64.50
2019-04-21T16:51:03.652Z,65.10
2019-04-21T16:53:34.142Z,66.10
2019-04-21T16:56:22.608Z,63.50
2019-04-21T16:58:53.061Z,64.40
2019-04-21T17:01:27.647Z,65.90
2019-04-21T17:03:56.267Z,63.20
2019-04-21T17:06:25.017Z,65.00
2019-04-21T17:08:54.672Z,67.00
2019-04-21T17:11:27.237Z,66.90
2019-04-21T17:13:54.295Z,67.80
2019-04-21T17:19:02.882Z,70.40
2019-04-21T17:21:23.902Z,76.20
2019-04-21T17:23:52.581Z,81.40
2019-04-21T17:26:21.395Z,87.40
2019-04-21T17:28:50.121Z,88.00
2019-04-21T17:31:18.686Z,89.00
2019-04-21T17:33:51.935Z,91.50
2019-04-21T17:36:18.918Z,92.90
2019-04-21T17:38:48.280Z,93.80
2019-04-21T17:41:27.875Z,94.50
2019-04-21T17:43:47.862Z,95.80
2019-04-21T17:46:22.968Z,95.90
2019-04-21T17:48:47.374Z,96.10
2019-04-21T17:51:23.473Z,96.80
2019-04-21T17:54:00.334Z,97.30
2019-04-21T17:56:53.826Z,97.50
2019-04-21T17:59:16.360Z,97.50
2019-04-21T18:01:50.047Z,97.40
2019-04-21T18:04:18.800Z,97.50
2019-04-21T18:06:54.414Z,97.70
2019-04-21T18:09:42.134Z,98.40
2019-04-21T18:12:01.430Z,98.90
2019-04-21T18:14:12.029Z,98.70
2019-04-21T18:16:44.811Z,98.60
2019-04-21T18:19:11.090Z,98.80
2019-04-21T18:22:03.026Z,99.10
2019-04-21T18:24:40.705Z,99.20
2019-04-21T18:27:04.278Z,99.80
2019-04-21T18:29:32.153Z,99.90
2019-04-21T18:32:01.137Z,99.90
2019-04-21T18:34:42.881Z,99.90
2019-04-21T18:37:22.039Z,99.90
2019-04-21T18:39:55.799Z,99.90
2019-04-21T18:42:37.196Z,99.90
2019-04-21T18:45:34.334Z,99.90
2019-04-21T18:47:48.856Z,99.90
2019-04-21T18:50:31.593Z,99.90
2019-04-21T18:53:16.895Z,99.90
2019-04-21T18:55:45.340Z,99.90
2019-04-21T18:58:12.494Z,99.90
2019-04-21T19:00:43.334Z,99.90
2019-04-21T19:03:37.709Z,99.90
2019-04-21T19:06:08.078Z,99.90
2019-04-21T19:08:56.160Z,99.90
2019-04-21T19:11:19.606Z,99.90
2019-04-21T19:14:20.776Z,99.90
2019-04-21T19:16:43.118Z,99.90
2019-04-21T19:19:34.080Z,99.90
2019-04-21T19:21:34.464Z,99.90
2019-04-21T19:24:17.960Z,99.90
2019-04-21T19:26:49.807Z,99.90
2019-04-21T19:29:16.339Z,99.90
2019-04-21T19:31:41.002Z,99.90
2019-04-21T19:34:02.119Z,99.90
2019-04-21T19:36:21.518Z,99.90
2019-04-21T19:38:59.653Z,99.90
2019-04-21T19:41:32.498Z,99.90
2019-04-21T19:44:08.839Z,99.90
2019-04-21T19:46:34.375Z,99.90
2019-04-21T19:49:17.220Z,99.90
2019-04-21T19:51:35.523Z,99.90
2019-04-21T19:54:01.768Z,99.90
2019-04-21T19:56:24.005Z,99.90
2019-04-21T19:58:52.976Z,99.90
2019-04-21T20:01:21.558Z,99.90
2019-04-21T20:03:55.541Z,99.90
2019-04-21T20:06:33.073Z,99.90
2019-04-21T20:09:09.661Z,99.90
2019-04-21T20:11:37.154Z,99.90
2019-04-21T20:14:37.630Z,99.90
2019-04-21T20:16:41.377Z,99.90
2019-04-21T20:18:58.332Z,99.90
2019-04-21T20:21:23.110Z,99.90
2019-04-21T20:23:51.804Z,99.90
2019-04-21T20:26:23.142Z,99.90
2019-04-21T20:28:59.291Z,99.90
2019-04-21T20:31:36.217Z,99.90
2019-04-21T20:34:11.133Z,99.90
2019-04-21T20:36:41.794Z,99.90
2019-04-21T20:38:57.993Z,99.90
2019-04-21T20:41:38.198Z,99.90
2019-04-21T20:44:17.280Z,99.90
2019-04-21T20:46:39.823Z,99.90
2019-04-21T20:49:08.359Z,99.90
2019-04-21T20:51:43.809Z,99.90
2019-04-21T20:54:17.616Z,99.90
2019-04-21T20:56:43.973Z,99.90
2019-04-21T20:59:11.924Z,99.90
2019-04-21T21:01:43.330Z,99.90
2019-04-21T21:04:13.800Z,99.90
2019-04-21T21:06:47.973Z,99.90
2019-04-21T21:09:17.085Z,99.90
2019-04-21T21:12:07.547Z,99.90
2019-04-21T21:14:16.413Z,99.90
2019-04-21T21:16:50.731Z,99.90
2019-04-21T21:19:23.902Z,99.90
2019-04-21T21:21:44.481Z,99.90
2019-04-21T21:24:21.838Z,99.90
2019-04-21T21:26:49.863Z,99.90
2019-04-21T21:29:20.763Z,99.90
2019-04-21T21:32:04.291Z,99.90
2019-04-21T21:34:29.416Z,99.90
2019-04-21T21:36:57.643Z,99.90
2019-04-21T21:39:24.613Z,99.90
2019-04-21T21:41:45.157Z,99.90
2019-04-21T21:44:13.337Z,99.90
2019-04-21T21:46:49.964Z,99.90
2019-04-21T21:49:27.987Z,99.90
2019-04-21T21:51:56.007Z,99.90
2019-04-21T21:54:11.626Z,99.90
2019-04-21T21:56:40.791Z,99.90
2019-04-21T21:59:15.041Z,99.90
2019-04-21T22:01:45.721Z,99.90
2019-04-21T22:04:19.246Z,99.90
2019-04-21T22:06:50.652Z,99.90
2019-04-21T22:09:12.646Z,99.90
2019-04-21T22:11:42.274Z,99.90
2019-04-21T22:14:17.109Z,99.90
2019-04-21T22:16:50.350Z,99.90
2019-04-21T22:19:29.973Z,99.90
2019-04-21T22:21:58.065Z,99.90
2019-04-21T22:24:30.184Z,99.90
2019-04-21T22:26:43.219Z,99.90
2019-04-21T22:29:13.842Z,99.90
2019-04-21T22:31:45.129Z,99.90
2019-04-21T22:34:18.277Z,99.90
2019-04-21T22:36:56.300Z,99.90
2019-04-21T22:39:36.254Z,99.90
2019-04-21T22:42:00.507Z,99.90
2019-04-21T22:44:18.816Z,99.90
2019-04-21T22:46:59.927Z,99.90
2019-04-21T22:49:18.611Z,99.90
2019-04-21T22:51:51.755Z,99.90
2019-04-21T22:54:24.479Z,99.90
2019-04-21T22:56:57.126Z,99.90
2019-04-21T22:59:22.221Z,99.90
2019-04-21T23:01:51.875Z,99.90
2019-04-21T23:04:19.397Z,99.90
2019-04-21T23:06:59.215Z,99.90
2019-04-21T23:09:19.594Z,99.90
2019-04-21T23:11:51.047Z,99.90
2019-04-21T23:14:19.016Z,99.90
2019-04-21T23:16:53.673Z,99.90
2019-04-21T23:19:33.563Z,99.90
2019-04-21T23:22:04.168Z,99.90
2019-04-21T23:24:42.188Z,99.90
2019-04-21T23:27:05.177Z,99.90
2019-04-21T23:29:47.858Z,99.90
2019-04-21T23:32:03.492Z,99.90
2019-04-21T23:34:26.892Z,99.90
2019-04-21T23:37:00.198Z,99.90
2019-04-21T23:39:27.396Z,99.90
2019-04-21T23:41:55.007Z,99.90
2019-04-21T23:44:24.099Z,99.90
2019-04-21T23:46:57.604Z,99.90
2019-04-21T23:49:38.011Z,99.90
2019-04-21T23:52:00.493Z,99.90
2019-04-21T23:54:23.435Z,99.90
2019-04-21T23:56:52.029Z,99.90
2019-04-21T23:59:20.706Z,99.90
